Time;durP1;ratioP1;P1;durP2;ratioP2;P2;SDS_P1;SDS_P2;PMS_P1;PMS_P2;Temp;Humidity;BMP_temperature;BMP_pressure;BME280_temperature;BME280_humidity;BME280_pressure;Samples;Min_cycle;Max_cycle;Signal;HPM_P1;HPM_P2
2022/10/18 00:01:36;;;;;;;10.30;7.07;;;;;;;17.44;100.00;100022.88;5068277;28;20204;-81
2022/10/18 00:04:04;;;;;;;11.70;7.33;;;;;;;17.60;100.00;100027.88;5062961;28;20195;-80
2022/10/18 00:06:32;;;;;;;9.53;6.63;;;;;;;17.57;100.00;100025.44;5068017;28;20218;-80
2022/10/18 00:09:03;;;;;;;14.20;7.17;;;;;;;17.53;100.00;100032.00;5069709;28;20231;-80
2022/10/18 00:11:37;;;;;;;16.97;6.90;;;;;;;17.42;100.00;100032.84;5067258;28;20188;-81
2022/10/18 00:14:06;;;;;;;14.23;6.33;;;;;;;17.51;100.00;100039.31;5072490;28;20772;-80
2022/10/18 00:16:36;;;;;;;7.60;5.93;;;;;;;17.41;100.00;100033.81;5068817;28;20219;-81
2022/10/18 00:19:04;;;;;;;8.30;6.77;;;;;;;17.36;100.00;100036.84;5064176;28;20192;-80
2022/10/18 00:21:33;;;;;;;12.17;6.10;;;;;;;17.46;100.00;100032.47;5073637;28;20192;-81
2022/10/18 00:24:01;;;;;;;11.60;7.57;;;;;;;17.23;100.00;100032.59;5073321;28;20192;-81
2022/10/18 00:26:31;;;;;;;17.20;7.97;;;;;;;17.35;100.00;100045.88;5066456;28;20243;-81
2022/10/18 00:29:02;;;;;;;17.63;8.53;;;;;;;17.37;100.00;100038.59;5071292;28;20196;-81
2022/10/18 00:31:34;;;;;;;16.70;8.30;;;;;;;17.38;100.00;100047.47;5070287;28;20192;-80
2022/10/18 00:34:08;;;;;;;13.20;7.63;;;;;;;17.35;100.00;100051.22;5064935;28;20216;-80
2022/10/18 00:36:38;;;;;;;11.27;7.47;;;;;;;17.39;100.00;100043.81;5065909;28;20215;-80
2022/10/18 00:39:11;;;;;;;14.03;7.47;;;;;;;17.35;100.00;100037.81;5065466;28;20195;-80
2022/10/18 00:41:39;;;;;;;14.33;7.07;;;;;;;17.38;100.00;100032.25;5069329;28;20196;-80
2022/10/18 00:44:47;;;;;;;15.50;7.27;;;;;;;17.30;100.00;100029.31;5067791;28;20230;-80
2022/10/18 00:47:18;;;;;;;12.43;7.37;;;;;;;17.33;100.00;100037.09;5071547;28;20200;-80
2022/10/18 00:49:51;;;;;;;15.60;7.00;;;;;;;17.18;100.00;100038.31;5069167;28;20262;-81
2022/10/18 00:52:24;;;;;;;11.00;6.93;;;;;;;17.25;100.00;100042.19;5068362;28;20192;-80
2022/10/18 00:54:53;;;;;;;14.23;7.67;;;;;;;17.19;100.00;100052.53;5066951;28;20195;-80
2022/10/18 00:57:22;;;;;;;10.97;6.67;;;;;;;17.17;100.00;100047.28;5070245;28;20216;-80
2022/10/18 00:59:51;;;;;;;12.80;7.60;;;;;;;17.11;100.00;100040.59;5070147;28;20199;-80
2022/10/18 01:02:19;;;;;;;15.37;7.00;;;;;;;17.08;100.00;100046.19;4969314;28;20206;-81
2022/10/18 01:04:49;;;;;;;13.53;7.00;;;;;;;17.18;100.00;100051.69;4958277;28;20207;-80
2022/10/18 01:07:30;;;;;;;11.57;6.47;;;;;;;17.13;100.00;100052.03;4963619;28;20200;-80
2022/10/18 01:10:09;;;;;;;12.07;7.00;;;;;;;17.16;100.00;100059.81;4962930;28;20195;-80
2022/10/18 01:12:47;;;;;;;13.53;7.20;;;;;;;17.06;100.00;100060.66;4937696;28;20231;-80
2022/10/18 01:15:28;;;;;;;12.73;6.50;;;;;;;17.05;100.00;100061.63;4965833;28;20203;-80
2022/10/18 01:18:05;;;;;;;16.60;7.47;;;;;;;17.08;100.00;100061.38;4958556;28;20227;-80
2022/10/18 01:21:18;;;;;;;17.33;8.27;;;;;;;17.08;100.00;100056.03;5006067;28;20220;-80
2022/10/18 01:24:17;;;;;;;16.77;8.43;;;;;;;17.22;100.00;100052.31;5013241;28;20254;-80
2022/10/18 01:27:03;;;;;;;15.07;7.60;;;;;;;17.17;100.00;100055.31;5031516;28;20193;-80
2022/10/18 01:29:45;;;;;;;12.90;8.20;;;;;;;17.21;100.00;100056.81;5029702;28;20222;-80
2022/10/18 01:32:20;;;;;;;13.47;7.80;;;;;;;17.29;100.00;100048.19;5029409;28;20190;-79
2022/10/18 01:34:52;;;;;;;13.70;7.83;;;;;;;17.28;100.00;100051.84;5030437;28;20189;-80
2022/10/18 01:37:23;;;;;;;12.70;7.50;;;;;;;17.30;100.00;100047.22;5026583;28;20237;-80
2022/10/18 01:39:55;;;;;;;12.70;7.20;;;;;;;17.34;100.00;100040.63;5027061;28;20240;-81
2022/10/18 01:42:24;;;;;;;12.90;7.70;;;;;;;17.30;100.00;100039.19;5029185;28;20210;-81
2022/10/18 01:44:55;;;;;;;13.27;8.30;;;;;;;17.34;100.00;100035.28;5039686;28;20706;-80
2022/10/18 01:47:27;;;;;;;11.87;7.90;;;;;;;17.36;100.00;100023.47;5046527;28;20225;-81
2022/10/18 01:49:59;;;;;;;11.90;7.60;;;;;;;17.40;100.00;100024.94;5052032;28;20357;-81
2022/10/18 01:52:29;;;;;;;13.07;7.03;;;;;;;17.13;100.00;100019.06;5052373;28;20242;-81
2022/10/18 01:55:03;;;;;;;11.80;7.47;;;;;;;17.22;100.00;100028.19;5046414;28;20698;-81
2022/10/18 01:57:41;;;;;;;9.87;7.10;;;;;;;17.26;100.00;100011.75;5051059;28;20213;-81
2022/10/18 02:00:14;;;;;;;8.73;6.87;;;;;;;17.30;100.00;100012.41;5049734;28;20201;-82
2022/10/18 02:02:57;;;;;;;8.43;7.03;;;;;;;17.28;100.00;100011.66;5048060;28;20201;-81
2022/10/18 02:05:32;;;;;;;13.00;7.63;;;;;;;17.17;100.00;100023.19;5049415;28;20200;-82
2022/10/18 02:08:07;;;;;;;13.53;7.80;;;;;;;17.26;100.00;100035.00;5051372;28;20192;-81
2022/10/18 02:10:55;;;;;;;11.63;7.30;;;;;;;17.26;100.00;100051.94;5055310;28;20194;-81
2022/10/18 02:13:26;;;;;;;11.57;7.93;;;;;;;17.32;100.00;100050.63;5066704;28;20266;-82
2022/10/18 02:15:59;;;;;;;11.50;8.10;;;;;;;17.11;100.00;100047.78;5078681;28;20185;-81
2022/10/18 02:18:36;;;;;;;9.73;7.87;;;;;;;17.27;100.00;100052.78;5070703;28;20184;-81
2022/10/18 02:21:09;;;;;;;10.20;7.93;;;;;;;17.21;100.00;100050.59;5077023;28;20196;-81
2022/10/18 02:23:38;;;;;;;10.33;7.77;;;;;;;17.28;100.00;100049.16;5071800;28;20246;-81
2022/10/18 02:26:07;;;;;;;10.63;7.43;;;;;;;17.36;100.00;100044.88;5070500;28;20218;-81
2022/10/18 02:28:35;;;;;;;10.53;7.67;;;;;;;17.32;100.00;100051.47;5074387;28;20200;-81
2022/10/18 02:31:08;;;;;;;8.80;7.90;;;;;;;17.17;100.00;100034.75;5067888;28;20232;-81
2022/10/18 02:33:45;;;;;;;8.53;6.93;;;;;;;17.35;100.00;100034.28;5070086;28;20204;-81
2022/10/18 02:36:33;;;;;;;11.67;7.10;;;;;;;17.38;100.00;100036.75;5069148;28;20226;-81
2022/10/18 02:39:06;;;;;;;9.83;7.40;;;;;;;17.30;100.00;100050.75;5073134;28;20200;-81
2022/10/18 02:41:35;;;;;;;12.63;7.73;;;;;;;17.28;100.00;100049.16;5074368;28;20200;-81
2022/10/18 02:44:04;;;;;;;12.37;7.90;;;;;;;17.29;100.00;100058.91;5073070;28;20188;-81
2022/10/18 02:46:34;;;;;;;11.53;8.10;;;;;;;17.31;100.00;100051.59;5074820;28;20196;-81
2022/10/18 02:49:04;;;;;;;10.47;7.93;;;;;;;17.31;100.00;100043.56;5072487;28;20215;-81
2022/10/18 02:51:33;;;;;;;12.23;7.13;;;;;;;17.34;100.00;100057.56;5048835;28;20197;-82
2022/10/18 02:54:02;;;;;;;11.67;6.73;;;;;;;17.36;100.00;100054.75;5047762;28;20597;-81
2022/10/18 02:56:30;;;;;;;9.27;7.00;;;;;;;17.34;100.00;100052.19;5049104;28;20302;-81
2022/10/18 02:58:59;;;;;;;8.67;7.40;;;;;;;17.35;100.00;100050.38;5052814;28;20258;-81
2022/10/18 03:01:27;;;;;;;10.03;7.60;;;;;;;17.35;100.00;100037.81;5050358;28;20198;-81
2022/10/18 03:03:56;;;;;;;11.33;7.80;;;;;;;17.38;100.00;100036.75;5042861;28;20197;-81
2022/10/18 03:06:26;;;;;;;10.13;7.73;;;;;;;17.33;100.00;100042.47;5043607;28;20200;-82
2022/10/18 03:08:55;;;;;;;10.37;7.57;;;;;;;17.41;100.00;100044.53;5053946;28;20249;-82
2022/10/18 03:11:24;;;;;;;9.47;7.63;;;;;;;17.48;100.00;100051.13;5067692;28;20193;-82
2022/10/18 03:13:55;;;;;;;8.63;7.53;;;;;;;17.32;100.00;100053.28;5071417;28;20277;-82
2022/10/18 03:16:24;;;;;;;12.30;7.87;;;;;;;17.27;100.00;100052.78;5072409;28;20192;-81
2022/10/18 03:18:53;;;;;;;11.27;7.57;;;;;;;17.19;100.00;100060.59;5071377;28;20250;-81
2022/10/18 03:21:21;;;;;;;10.47;7.93;;;;;;;17.15;100.00;100070.66;5067492;28;20228;-81
2022/10/18 03:23:53;;;;;;;7.73;6.97;;;;;;;17.18;100.00;100065.09;5072371;28;20203;-81
2022/10/18 03:26:22;;;;;;;10.33;7.53;;;;;;;17.23;100.00;100065.56;5068672;28;20196;-81
2022/10/18 03:28:51;;;;;;;8.23;7.07;;;;;;;17.24;100.00;100069.09;5064779;28;20192;-81
2022/10/18 03:31:20;;;;;;;9.07;7.67;;;;;;;17.12;100.00;100069.06;5062840;28;20201;-81
2022/10/18 03:33:48;;;;;;;11.53;8.23;;;;;;;17.17;100.00;100072.22;5068924;28;20214;-81
2022/10/18 03:36:17;;;;;;;10.23;8.30;;;;;;;17.21;100.00;100070.19;5075553;28;20196;-81
2022/10/18 03:38:45;;;;;;;11.87;8.47;;;;;;;17.24;100.00;100064.59;5073612;28;20281;-81
2022/10/18 03:41:15;;;;;;;11.27;8.33;;;;;;;17.32;100.00;100067.53;5066062;28;20208;-81
2022/10/18 03:43:44;;;;;;;13.30;8.57;;;;;;;17.32;100.00;100072.91;5071327;28;20228;-81
2022/10/18 03:46:12;;;;;;;11.60;8.33;;;;;;;17.43;100.00;100082.78;5071862;28;20192;-81
2022/10/18 03:48:40;;;;;;;11.67;8.70;;;;;;;17.29;100.00;100083.00;5071690;28;20274;-82
2022/10/18 03:51:08;;;;;;;12.77;8.77;;;;;;;17.26;100.00;100088.56;5076231;28;20185;-81
2022/10/18 03:53:37;;;;;;;12.40;8.83;;;;;;;17.26;100.00;100081.38;5071579;28;20201;-81
2022/10/18 03:56:06;;;;;;;13.13;9.60;;;;;;;17.24;100.00;100074.44;5071059;28;20250;-81
2022/10/18 03:58:36;;;;;;;11.33;8.37;;;;;;;17.23;100.00;100073.59;5071455;28;20219;-81
2022/10/18 04:01:05;;;;;;;11.40;9.10;;;;;;;17.11;100.00;100075.41;5070076;28;20246;-81
2022/10/18 04:03:34;;;;;;;10.70;8.80;;;;;;;17.23;100.00;100080.78;5069621;28;20196;-82
2022/10/18 04:06:02;;;;;;;14.97;10.10;;;;;;;17.15;100.00;100089.41;5072055;28;20242;-82
2022/10/18 04:08:30;;;;;;;12.73;10.33;;;;;;;17.10;100.00;100091.59;5071273;28;20204;-82
2022/10/18 04:10:59;;;;;;;10.53;8.67;;;;;;;17.09;100.00;100098.75;5075792;28;20196;-82
2022/10/18 04:13:27;;;;;;;10.67;9.17;;;;;;;17.16;100.00;100101.81;5073218;28;20232;-82
2022/10/18 04:15:57;;;;;;;8.73;6.10;;;;;;;17.09;100.00;100092.56;5072407;28;20191;-81
2022/10/18 04:18:26;;;;;;;4.23;2.67;;;;;;;17.10;100.00;100086.22;5070144;28;20212;-82
2022/10/18 04:20:55;;;;;;;3.80;2.10;;;;;;;16.70;100.00;100088.38;5071246;28;20204;-81
2022/10/18 04:23:23;;;;;;;2.40;2.03;;;;;;;16.62;100.00;100083.56;5068892;28;20189;-81
2022/10/18 04:25:51;;;;;;;2.90;2.30;;;;;;;16.73;100.00;100088.16;5055420;28;20196;-82
2022/10/18 04:28:20;;;;;;;2.77;2.30;;;;;;;16.70;100.00;100080.34;5069827;28;20197;-81
2022/10/18 04:30:52;;;;;;;3.20;2.30;;;;;;;16.76;100.00;100077.19;5070600;28;20253;-82
2022/10/18 04:33:22;;;;;;;5.50;2.63;;;;;;;16.65;100.00;100080.66;5072280;28;20235;-82
2022/10/18 04:35:52;;;;;;;3.77;2.73;;;;;;;16.69;100.00;100073.28;5050101;28;20201;-82
2022/10/18 04:38:21;;;;;;;3.43;3.13;;;;;;;16.63;100.00;100071.03;5045106;28;20236;-83
2022/10/18 04:40:51;;;;;;;4.17;3.40;;;;;;;16.66;100.00;100062.78;5039761;28;20226;-81
2022/10/18 04:43:19;;;;;;;6.10;3.70;;;;;;;16.63;100.00;100068.38;5045608;28;20266;-81
2022/10/18 04:45:49;;;;;;;4.57;4.17;;;;;;;16.68;100.00;100053.69;5045010;28;20681;-81
2022/10/18 04:48:19;;;;;;;5.53;3.50;;;;;;;16.78;100.00;100060.06;5044508;28;20197;-81
2022/10/18 04:50:50;;;;;;;3.47;3.17;;;;;;;16.78;100.00;100059.19;5048442;28;20189;-81
2022/10/18 04:53:19;;;;;;;4.23;3.33;;;;;;;16.84;100.00;100058.75;5044861;28;20200;-81
2022/10/18 04:55:49;;;;;;;3.67;2.70;;;;;;;16.70;100.00;100056.28;5070236;28;20235;-81
2022/10/18 04:58:18;;;;;;;2.57;2.00;;;;;;;16.73;100.00;100064.06;5071153;28;20212;-81
2022/10/18 05:00:48;;;;;;;2.53;2.00;;;;;;;16.75;100.00;100068.31;5072041;28;20246;-81
2022/10/18 05:03:18;;;;;;;2.83;2.00;;;;;;;16.75;100.00;100067.47;5075735;28;20224;-82
2022/10/18 05:05:47;;;;;;;2.40;2.20;;;;;;;16.76;100.00;100059.31;5076903;28;20192;-82
2022/10/18 05:08:33;;;;;;;2.73;2.30;;;;;;;16.86;100.00;100057.66;5074984;28;20196;-81
2022/10/18 05:11:02;;;;;;;2.40;2.20;;;;;;;16.91;100.00;100049.31;5068672;28;20208;-82
2022/10/18 05:13:31;;;;;;;3.07;2.27;;;;;;;16.88;100.00;100038.81;5072103;28;20691;-81
2022/10/18 05:15:59;;;;;;;2.30;2.10;;;;;;;16.83;100.00;100046.34;5075648;28;20200;-82
2022/10/18 05:18:28;;;;;;;2.27;1.97;;;;;;;16.85;100.00;100052.44;5072820;28;20220;-81
2022/10/18 05:20:56;;;;;;;2.43;2.07;;;;;;;16.75;100.00;100072.81;5076476;28;20242;-81
2022/10/18 05:23:25;;;;;;;2.40;2.20;;;;;;;16.34;100.00;100075.88;5078535;28;20246;-81
2022/10/18 05:25:55;;;;;;;2.27;2.07;;;;;;;16.34;100.00;100090.09;5075702;28;20196;-81
2022/10/18 05:28:25;;;;;;;2.80;2.13;;;;;;;16.30;100.00;100091.25;5079309;28;20200;-82
2022/10/18 05:31:10;;;;;;;3.57;2.67;;;;;;;16.45;100.00;100090.16;5076029;28;20230;-82
2022/10/18 05:33:38;;;;;;;4.23;3.07;;;;;;;16.53;100.00;100085.09;5070262;28;20279;-82
2022/10/18 05:36:08;;;;;;;3.77;2.93;;;;;;;16.60;100.00;100082.84;5073699;28;20185;-82
2022/10/18 05:38:40;;;;;;;3.63;3.20;;;;;;;16.65;100.00;100086.00;5074543;28;20216;-82
2022/10/18 05:41:13;;;;;;;3.63;2.77;;;;;;;16.73;100.00;100085.47;5067058;28;20200;-82
2022/10/18 05:43:42;;;;;;;3.60;2.60;;;;;;;16.77;100.00;100090.47;5076374;28;20200;-82
2022/10/18 05:46:11;;;;;;;2.83;2.63;;;;;;;16.74;100.00;100092.53;5074354;28;20203;-82
2022/10/18 05:48:43;;;;;;;3.97;3.10;;;;;;;16.69;100.00;100094.69;5075495;28;20200;-82
2022/10/18 05:51:12;;;;;;;3.37;2.83;;;;;;;16.66;100.00;100094.88;5074417;28;20193;-82
2022/10/18 05:53:40;;;;;;;3.33;3.00;;;;;;;16.74;100.00;100092.53;5057225;28;20200;-82
2022/10/18 05:56:10;;;;;;;4.07;3.03;;;;;;;16.78;100.00;100091.31;5056108;28;20228;-82
2022/10/18 05:58:41;;;;;;;5.47;3.83;;;;;;;16.89;100.00;100096.75;5051517;28;20216;-82
2022/10/18 06:01:10;;;;;;;9.27;5.07;;;;;;;16.88;100.00;100090.50;5051541;28;20227;-82
2022/10/18 06:03:39;;;;;;;7.77;4.80;;;;;;;16.88;100.00;100090.50;5046688;28;20196;-82
2022/10/18 06:06:10;;;;;;;6.67;4.20;;;;;;;16.93;100.00;100092.00;5048778;28;20263;-82
2022/10/18 06:08:40;;;;;;;4.30;3.57;;;;;;;16.97;100.00;100101.50;5051806;28;20220;-82
2022/10/18 06:11:10;;;;;;;7.37;3.47;;;;;;;16.98;100.00;100103.19;5050346;28;20248;-82
2022/10/18 06:13:44;;;;;;;4.87;3.37;;;;;;;16.98;100.00;100098.69;5024532;28;20224;-82
2022/10/18 06:16:16;;;;;;;5.67;3.17;;;;;;;16.98;100.00;100101.38;5063968;28;20674;-82
2022/10/18 06:18:47;;;;;;;4.93;3.37;;;;;;;16.96;100.00;100106.00;5077186;28;20243;-82
2022/10/18 06:21:17;;;;;;;6.63;4.13;;;;;;;16.95;100.00;100098.09;5067861;28;20242;-82
2022/10/18 06:23:48;;;;;;;6.00;4.00;;;;;;;16.82;100.00;100099.00;5069684;28;20289;-81
2022/10/18 06:26:17;;;;;;;8.03;4.53;;;;;;;16.74;100.00;100103.22;5072991;28;20204;-82
2022/10/18 06:28:47;;;;;;;5.70;4.57;;;;;;;16.65;100.00;100093.19;5066111;28;20204;-82
2022/10/18 06:31:16;;;;;;;6.10;4.33;;;;;;;16.75;100.00;100102.25;5066484;28;20192;-83
2022/10/18 06:33:45;;;;;;;7.17;4.33;;;;;;;16.81;100.00;100110.69;5071889;28;20196;-82
2022/10/18 06:36:16;;;;;;;4.77;4.20;;;;;;;16.84;100.00;100104.25;5067620;28;20192;-82
2022/10/18 06:38:45;;;;;;;5.20;4.67;;;;;;;16.87;100.00;100104.84;5066700;28;20228;-82
2022/10/18 06:41:16;;;;;;;6.30;4.40;;;;;;;17.00;100.00;100115.53;5065094;28;20257;-82
2022/10/18 06:43:50;;;;;;;5.90;4.30;;;;;;;17.06;100.00;100116.88;5069263;28;20192;-82
2022/10/18 06:46:18;;;;;;;6.77;4.87;;;;;;;17.03;100.00;100130.50;5073448;28;20200;-82
2022/10/18 06:48:48;;;;;;;6.00;5.40;;;;;;;16.97;100.00;100126.44;5071406;28;20336;-82
2022/10/18 06:51:20;;;;;;;7.27;4.63;;;;;;;16.99;100.00;100132.56;5073020;28;20262;-82
2022/10/18 06:53:49;;;;;;;5.07;4.57;;;;;;;17.04;100.00;100132.19;5067972;28;20231;-82
2022/10/18 06:56:38;;;;;;;5.80;4.93;;;;;;;16.98;100.00;100138.00;5073195;28;20211;-82
2022/10/18 06:59:08;;;;;;;5.80;4.70;;;;;;;16.92;100.00;100133.97;5067519;28;20248;-82
2022/10/18 07:01:36;;;;;;;6.23;4.50;;;;;;;16.97;100.00;100137.16;5071941;28;20279;-83
2022/10/18 07:04:05;;;;;;;6.23;4.50;;;;;;;16.91;100.00;100142.97;5061578;28;20196;-82
2022/10/18 07:06:34;;;;;;;6.97;4.80;;;;;;;16.91;100.00;100142.97;5066549;28;20238;-83
2022/10/18 07:09:03;;;;;;;5.33;4.30;;;;;;;16.88;100.00;100138.69;5069387;28;20196;-82
2022/10/18 07:11:31;;;;;;;4.90;4.47;;;;;;;17.02;100.00;100139.50;5069761;28;20204;-82
2022/10/18 07:14:03;;;;;;;5.27;4.17;;;;;;;17.08;100.00;100144.38;5073400;28;20220;-82
2022/10/18 07:16:34;;;;;;;5.87;4.23;;;;;;;17.11;100.00;100144.16;5070475;28;20189;-82
2022/10/18 07:19:03;;;;;;;4.90;4.20;;;;;;;16.95;100.00;100148.94;5073825;28;20223;-82
2022/10/18 07:21:32;;;;;;;5.40;4.03;;;;;;;17.08;100.00;100147.03;5071620;28;20188;-82
2022/10/18 07:24:00;;;;;;;5.43;3.80;;;;;;;16.88;100.00;100151.22;5073503;28;20238;-82
2022/10/18 07:26:31;;;;;;;3.47;3.10;;;;;;;16.94;100.00;100160.63;5073416;28;20193;-82
2022/10/18 07:29:02;;;;;;;5.17;3.50;;;;;;;16.98;100.00;100162.09;5070880;28;20246;-82
2022/10/18 07:31:30;;;;;;;4.63;3.60;;;;;;;17.01;100.00;100167.22;5069598;28;20189;-82
2022/10/18 07:34:01;;;;;;;5.43;3.80;;;;;;;16.93;100.00;100173.16;5068661;28;20193;-82
2022/10/18 07:36:29;;;;;;;7.70;3.63;;;;;;;16.90;100.00;100172.53;5071777;28;20184;-82
2022/10/18 07:38:58;;;;;;;6.57;3.27;;;;;;;16.79;100.00;100184.00;5065882;28;20200;-82
2022/10/18 07:41:27;;;;;;;5.13;3.00;;;;;;;16.70;100.00;100177.53;5071391;28;20253;-82
2022/10/18 07:43:56;;;;;;;4.97;2.93;;;;;;;16.73;100.00;100184.47;5068875;28;20196;-82
2022/10/18 07:46:24;;;;;;;2.73;2.53;;;;;;;16.68;100.00;100183.91;5069905;28;20249;-82
2022/10/18 07:48:57;;;;;;;2.83;2.53;;;;;;;16.63;100.00;100186.06;5066414;28;20189;-83
2022/10/18 07:51:29;;;;;;;4.37;2.37;;;;;;;16.61;100.00;100188.88;5072722;28;20196;-82
2022/10/18 07:54:01;;;;;;;3.27;2.10;;;;;;;16.60;100.00;100193.38;5070333;28;20196;-81
2022/10/18 07:56:30;;;;;;;3.90;2.30;;;;;;;16.59;100.00;100196.13;5074184;28;20678;-82
2022/10/18 07:58:58;;;;;;;2.93;1.80;;;;;;;16.44;100.00;100186.53;5065004;28;20200;-81
2022/10/18 08:01:28;;;;;;;4.33;1.83;;;;;;;16.51;100.00;100177.97;5072547;28;20242;-81
2022/10/18 08:03:57;;;;;;;5.60;2.40;;;;;;;16.60;100.00;100184.47;5070973;28;20632;-81
2022/10/18 08:06:34;;;;;;;4.37;2.00;;;;;;;16.60;100.00;100179.13;5073525;28;20231;-82
2022/10/18 08:09:03;;;;;;;2.20;1.70;;;;;;;16.67;100.00;100183.06;5069797;28;20197;-81
2022/10/18 08:11:31;;;;;;;3.87;1.90;;;;;;;16.71;100.00;100181.06;5028905;28;20225;-81
2022/10/18 08:14:00;;;;;;;2.40;1.60;;;;;;;16.77;100.00;100180.59;5020911;28;20221;-81
2022/10/18 08:16:30;;;;;;;2.63;1.60;;;;;;;16.71;100.00;100181.06;5022440;28;20201;-82
2022/10/18 08:18:59;;;;;;;35.73;31.90;;;;;;;16.85;100.00;100175.53;5025919;28;20228;-81
2022/10/18 08:21:29;;;;;;;16.27;14.80;;;;;;;16.86;100.00;100169.22;5027216;28;20214;-81
2022/10/18 08:24:04;;;;;;;11.77;10.77;;;;;;;16.82;100.00;100181.97;4980767;28;20244;-81
2022/10/18 08:26:36;;;;;;;6.03;4.87;;;;;;;16.94;100.00;100176.69;4947593;29;21105;-81
2022/10/18 08:29:05;;;;;;;2.97;2.63;;;;;;;17.05;100.00;100185.63;4958122;28;20202;-81
2022/10/18 08:31:52;;;;;;;2.00;1.37;;;;;;;17.20;100.00;100188.13;5008828;28;20194;-81
2022/10/18 08:34:21;;;;;;;1.27;1.13;;;;;;;17.22;100.00;100192.41;5004385;28;20190;-82
2022/10/18 08:36:50;;;;;;;1.27;1.17;;;;;;;17.04;100.00;100188.41;5002671;28;20230;-81
2022/10/18 08:39:21;;;;;;;2.83;1.27;;;;;;;17.12;100.00;100192.22;5006580;28;20194;-82
2022/10/18 08:42:08;;;;;;;2.17;1.30;;;;;;;17.15;100.00;100186.63;5003118;28;20202;-82
2022/10/18 08:44:44;;;;;;;5.17;3.70;;;;;;;17.26;100.00;100190.34;5002214;28;20202;-81
2022/10/18 08:47:17;;;;;;;2.47;1.33;;;;;;;17.25;100.00;100192.16;5004785;28;20197;-82
2022/10/18 08:49:49;;;;;;;1.57;1.10;;;;;;;17.21;100.00;100192.50;5004939;28;20203;-82
2022/10/18 08:52:28;;;;;;;1.70;1.17;;;;;;;17.32;100.00;100196.09;5067037;28;20196;-82
2022/10/18 08:55:02;;;;;;;1.67;1.03;;;;;;;17.42;100.00;100189.06;5072819;28;20226;-82
2022/10/18 08:57:32;;;;;;;2.43;1.40;;;;;;;17.61;100.00;100184.97;5068676;28;20257;-82
2022/10/18 09:00:02;;;;;;;3.10;1.70;;;;;;;17.73;100.00;100178.69;5050751;28;20220;-82
2022/10/18 09:02:44;;;;;;;2.73;1.60;;;;;;;17.85;100.00;100184.94;5043822;28;20228;-82
2022/10/18 09:05:23;;;;;;;4.13;1.80;;;;;;;17.76;100.00;100180.28;5045355;28;20204;-82
2022/10/18 09:08:21;;;;;;;3.30;1.80;;;;;;;17.81;100.00;100178.97;5042862;28;20212;-82
2022/10/18 09:11:01;;;;;;;4.77;1.70;;;;;;;17.73;100.00;100176.88;5035142;28;20232;-82
2022/10/18 09:13:57;;;;;;;3.97;2.00;;;;;;;17.87;100.00;100185.69;5036212;28;20252;-81
2022/10/18 09:16:34;;;;;;;2.90;1.60;;;;;;;17.89;100.00;100181.06;5025072;28;20193;-80
2022/10/18 09:19:11;;;;;;;1.33;1.23;;;;;;;17.65;100.00;100184.63;5045698;28;20215;-81
2022/10/18 09:21:51;;;;;;;3.13;1.67;;;;;;;17.67;100.00;100184.53;5048390;28;20270;-81
2022/10/18 09:24:27;;;;;;;5.97;1.60;;;;;;;17.57;100.00;100186.22;4972166;28;20207;-82
2022/10/18 09:27:06;;;;;;;3.03;1.73;;;;;;;17.75;100.00;100184.78;4967676;28;20199;-82
2022/10/18 09:29:55;;;;;;;3.93;1.87;;;;;;;17.93;100.00;100183.38;4968457;28;20211;-82
2022/10/18 09:32:35;;;;;;;4.00;2.07;;;;;;;17.84;100.00;100188.59;4965914;28;20223;-81
2022/10/18 09:35:14;;;;;;;2.70;1.70;;;;;;;17.85;100.00;100191.16;4966174;28;20207;-82
2022/10/18 09:37:45;;;;;;;3.40;1.97;;;;;;;17.64;100.00;100193.63;4970163;28;20192;-82
2022/10/18 09:40:20;;;;;;;3.03;1.73;;;;;;;17.67;100.00;100192.56;4970864;28;20226;-82
2022/10/18 09:43:08;;;;;;;2.33;1.70;;;;;;;17.78;100.00;100187.25;4976018;28;20207;-82
2022/10/18 09:45:44;;;;;;;2.13;1.90;;;;;;;17.63;100.00;100183.88;4990911;28;20258;-82
2022/10/18 09:48:23;;;;;;;4.63;1.90;;;;;;;17.96;100.00;100185.84;4933290;29;20281;-83
2022/10/18 09:50:57;;;;;;;2.00;1.80;;;;;;;18.06;100.00;100185.97;4934451;29;20212;-83
2022/10/18 09:53:36;;;;;;;2.03;1.57;;;;;;;18.17;100.00;100179.75;4894045;29;20209;-82
2022/10/18 09:56:10;;;;;;;2.00;1.60;;;;;;;18.36;100.00;100184.50;4893918;29;20210;-82
2022/10/18 09:58:45;;;;;;;2.47;1.70;;;;;;;18.31;100.00;100180.34;4896849;29;20194;-82
2022/10/18 10:01:19;;;;;;;2.37;1.40;;;;;;;18.33;100.00;100168.63;4857264;29;20227;-82
2022/10/18 10:03:52;;;;;;;1.93;1.50;;;;;;;18.20;100.00;100169.63;4878873;29;20747;-82
2022/10/18 10:06:26;;;;;;;4.03;1.60;;;;;;;18.23;100.00;100173.88;4877145;29;20535;-82
2022/10/18 10:09:05;;;;;;;3.50;1.60;;;;;;;18.23;100.00;100179.25;4858795;29;20195;-82
2022/10/18 10:11:36;;;;;;;2.00;1.80;;;;;;;18.15;100.00;100185.25;4877075;29;20206;-82
2022/10/18 10:14:18;;;;;;;4.70;1.80;;;;;;;18.17;100.00;100185.97;4897001;29;20234;-82
2022/10/18 10:16:52;;;;;;;1.57;1.47;;;;;;;18.00;100.00;100186.44;4896181;29;20206;-82
2022/10/18 10:19:32;;;;;;;1.83;1.67;;;;;;;18.20;100.00;100185.72;4905868;29;20201;-82
2022/10/18 10:22:06;;;;;;;2.00;1.80;;;;;;;18.31;100.00;100185.72;4915449;29;20217;-81
2022/10/18 10:24:44;;;;;;;1.60;1.50;;;;;;;18.50;100.00;100189.59;4867248;29;20209;-82
2022/10/18 10:27:20;;;;;;;1.67;1.40;;;;;;;18.56;100.00;100195.34;4955647;28;20239;-82
2022/10/18 10:29:58;;;;;;;2.77;1.50;;;;;;;18.58;100.00;100195.22;4942420;28;20258;-83
2022/10/18 10:32:46;;;;;;;2.40;1.40;;;;;;;18.69;100.00;100192.53;4940348;28;20254;-82
2022/10/18 10:35:25;;;;;;;1.13;0.97;;;;;;;18.66;100.00;100186.59;4957038;28;20291;-82
2022/10/18 10:38:25;;;;;;;1.10;1.00;;;;;;;18.71;100.00;100181.69;5010997;28;20204;-81
2022/10/18 10:40:56;;;;;;;1.80;1.70;;;;;;;18.57;100.00;100180.94;5050524;28;20331;-82
2022/10/18 10:43:29;;;;;;;1.60;1.50;;;;;;;18.68;100.00;100179.25;5049484;28;20272;-82
2022/10/18 10:46:11;;;;;;;2.30;1.97;;;;;;;18.48;100.00;100184.38;5054581;28;20205;-81
2022/10/18 10:48:47;;;;;;;2.40;2.20;;;;;;;18.32;100.00;100181.19;5050371;28;20288;-82
2022/10/18 10:51:21;;;;;;;4.10;2.17;;;;;;;18.19;100.00;100177.78;5050173;28;20200;-82
2022/10/18 10:53:57;;;;;;;2.23;1.90;;;;;;;18.24;100.00;100175.63;5051367;28;20239;-82
2022/10/18 10:56:28;;;;;;;3.23;1.93;;;;;;;18.29;100.00;100186.81;5049007;28;20208;-81
2022/10/18 10:59:06;;;;;;;2.13;1.93;;;;;;;18.32;100.00;100186.56;5051755;28;20224;-81
2022/10/18 11:01:36;;;;;;;5.33;2.40;;;;;;;18.13;100.00;100200.56;5048293;28;20241;-81
2022/10/18 11:04:24;;;;;;;2.60;2.40;;;;;;;18.11;100.00;100193.63;5049566;28;20201;-81
2022/10/18 11:07:01;;;;;;;3.80;3.50;;;;;;;18.09;100.00;100200.94;4991429;28;20214;-81
2022/10/18 11:09:45;;;;;;;4.50;3.90;;;;;;;18.00;100.00;100207.88;4933153;29;20197;-81
2022/10/18 11:12:22;;;;;;;5.00;3.30;;;;;;;17.98;100.00;100207.16;4930232;28;20205;-81
2022/10/18 11:15:04;;;;;;;3.40;3.00;;;;;;;18.05;100.00;100208.38;4948815;29;20200;-83
2022/10/18 11:17:40;;;;;;;5.20;2.40;;;;;;;17.98;100.00;100209.84;4950914;29;20284;-82
2022/10/18 11:20:22;;;;;;;2.60;2.40;;;;;;;17.95;100.00;100210.06;4938301;29;20202;-81
2022/10/18 11:23:05;;;;;;;3.53;2.10;;;;;;;18.04;100.00;100201.28;4952328;29;20220;-82
2022/10/18 11:25:49;;;;;;;2.80;2.20;;;;;;;17.93;100.00;100203.97;4980999;28;20199;-82
2022/10/18 11:28:26;;;;;;;2.53;2.30;;;;;;;18.05;100.00;100200.34;4987284;28;20222;-81
2022/10/18 11:31:09;;;;;;;3.27;2.33;;;;;;;18.13;100.00;100195.22;4951484;28;20196;-81
2022/10/18 11:33:56;;;;;;;2.60;2.40;;;;;;;18.31;100.00;100201.81;4956349;28;20202;-82
2022/10/18 11:36:46;;;;;;;3.17;2.00;;;;;;;18.28;100.00;100194.00;4992276;28;20238;-81
2022/10/18 11:39:39;;;;;;;3.57;3.17;;;;;;;18.29;100.00;100181.44;4990852;28;20203;-81
2022/10/18 11:42:20;;;;;;;3.20;2.80;;;;;;;18.40;100.00;100180.59;4985397;28;20269;-82